Time;durP1;ratioP1;P1;durP2;ratioP2;P2;SDS_P1;SDS_P2;PMS_P1;PMS_P2;Temp;Humidity;BMP_temperature;BMP_pressure;BME280_temperature;BME280_humidity;BME280_pressure;Samples;Min_cycle;Max_cycle;Signal;HPM_P1;HPM_P2
2023/05/14 00:01:30;;;;;;;7.20;6.23;;;13.60;93.70;;;13.42;61.80;101356.63;5013849;28;20289;-73
2023/05/14 00:04:02;;;;;;;6.97;6.20;;;13.60;94.00;;;13.44;61.59;101354.59;5013927;28;20282;-74
2023/05/14 00:06:35;;;;;;;7.87;6.07;;;13.60;93.70;;;13.33;62.19;101357.59;5013904;28;20188;-74
2023/05/14 00:09:07;;;;;;;6.70;6.10;;;13.50;94.10;;;13.33;63.10;101352.22;5013701;28;20215;-74
2023/05/14 00:11:39;;;;;;;7.77;5.97;;;13.50;94.70;;;13.38;62.17;101354.41;5013663;28;20235;-74
2023/05/14 00:14:17;;;;;;;7.13;6.43;;;13.50;94.40;;;13.32;62.06;101353.22;5013443;28;20191;-74
2023/05/14 00:16:48;;;;;;;8.20;6.10;;;13.50;94.30;;;13.25;62.12;101348.66;5013380;28;20556;-75
2023/05/14 00:19:20;;;;;;;7.03;5.80;;;13.50;94.30;;;13.27;62.36;101346.66;5013732;28;20214;-75
2023/05/14 00:21:54;;;;;;;6.60;6.00;;;13.50;94.50;;;13.13;62.81;101350.78;5013985;28;20200;-73
2023/05/14 00:24:25;;;;;;;7.70;5.90;;;13.30;94.50;;;13.14;61.94;101349.81;5013310;28;20607;-73
2023/05/14 00:26:57;;;;;;;6.77;6.07;;;13.40;94.50;;;13.08;63.10;101345.03;5013457;28;20194;-76
2023/05/14 00:29:29;;;;;;;6.50;5.90;;;13.30;94.90;;;13.14;62.75;101342.59;5014197;28;20195;-74
2023/05/14 00:32:03;;;;;;;7.17;6.33;;;13.30;95.10;;;13.02;63.53;101338.44;5013682;28;20211;-74
2023/05/14 00:34:35;;;;;;;7.27;6.40;;;13.30;94.80;;;12.94;63.76;101340.28;5013213;28;20599;-74
2023/05/14 00:37:08;;;;;;;7.10;6.40;;;13.10;95.30;;;12.91;63.52;101340.59;5013449;28;20201;-74
2023/05/14 00:39:40;;;;;;;6.93;5.90;;;13.10;95.40;;;12.94;64.16;101335.75;5013406;28;20207;-73
2023/05/14 00:42:12;;;;;;;6.60;6.00;;;13.10;95.40;;;12.85;64.24;101341.22;5013475;28;20195;-75
2023/05/14 00:44:44;;;;;;;7.87;5.60;;;13.00;95.60;;;12.88;64.39;101335.53;5013397;28;20196;-75
2023/05/14 00:47:16;;;;;;;7.27;5.90;;;13.00;95.90;;;12.85;64.30;101333.16;5013318;28;20219;-75
2023/05/14 00:49:49;;;;;;;7.27;5.90;;;13.10;95.60;;;12.81;64.60;101339.88;5013776;28;20227;-73
2023/05/14 00:52:24;;;;;;;7.53;5.77;;;13.10;95.50;;;12.76;64.88;101334.97;5013351;28;20188;-75
2023/05/14 00:54:56;;;;;;;6.10;5.50;;;13.00;95.80;;;12.73;65.80;101334.44;5016078;28;20206;-75
2023/05/14 00:57:28;;;;;;;6.57;5.70;;;13.00;96.10;;;12.67;65.64;101338.63;5017292;28;20299;-75
2023/05/14 01:00:01;;;;;;;7.80;5.77;;;12.90;96.10;;;12.64;65.28;101341.59;5017164;28;20223;-74
2023/05/14 01:02:33;;;;;;;7.00;6.13;;;12.90;96.40;;;12.64;65.83;101350.50;5017417;28;20200;-75
2023/05/14 01:05:07;;;;;;;6.80;5.90;;;12.90;96.50;;;12.60;66.19;101343.75;5016773;28;20663;-75
2023/05/14 01:07:49;;;;;;;5.97;5.30;;;12.80;96.50;;;12.56;67.02;101342.44;5016732;28;20219;-75
2023/05/14 01:10:32;;;;;;;7.17;5.50;;;12.80;96.80;;;12.51;67.18;101339.34;5016909;28;20223;-73
2023/05/14 01:13:12;;;;;;;6.73;6.13;;;12.70;97.00;;;12.48;66.10;101346.88;5017022;28;20192;-73
2023/05/14 01:15:47;;;;;;;6.67;5.40;;;12.70;96.80;;;12.47;66.20;101339.81;5017018;28;20249;-73
2023/05/14 01:18:23;;;;;;;6.30;5.20;;;12.70;96.80;;;12.50;66.95;101340.34;5016559;28;20651;-75
2023/05/14 01:20:56;;;;;;;7.00;5.40;;;12.70;97.00;;;12.42;66.43;101345.69;5016772;28;20266;-74
2023/05/14 01:23:29;;;;;;;6.63;5.33;;;12.70;97.00;;;12.37;66.90;101341.75;5016743;28;20191;-74
2023/05/14 01:26:01;;;;;;;6.13;5.53;;;12.60;97.10;;;12.42;66.29;101340.31;5017428;28;20199;-74
2023/05/14 01:28:38;;;;;;;6.13;5.53;;;12.60;97.10;;;12.34;67.25;101331.34;5016878;28;20587;-74
2023/05/14 01:31:18;;;;;;;6.67;5.50;;;12.60;97.00;;;12.29;67.26;101337.22;5016194;28;20734;-75
2023/05/14 01:33:54;;;;;;;6.63;5.70;;;12.50;97.10;;;12.22;67.29;101336.16;5016202;28;20215;-75
2023/05/14 01:36:27;;;;;;;6.20;5.60;;;12.50;97.40;;;12.23;67.98;101335.13;5016631;28;20203;-73
2023/05/14 01:39:02;;;;;;;6.33;5.80;;;12.40;97.70;;;12.15;68.07;101335.09;5016782;28;20192;-74
2023/05/14 01:41:35;;;;;;;5.77;5.10;;;12.40;97.70;;;12.15;67.79;101335.09;5016344;28;20226;-75
2023/05/14 01:44:07;;;;;;;8.57;5.73;;;12.40;97.60;;;12.06;68.08;101333.31;5016106;28;20640;-73
2023/05/14 01:46:39;;;;;;;6.80;5.10;;;12.30;97.90;;;12.01;68.41;101332.94;5016391;28;20192;-74
2023/05/14 01:49:11;;;;;;;5.53;5.10;;;12.30;98.10;;;11.97;68.89;101328.88;5016236;28;20638;-75
2023/05/14 01:51:43;;;;;;;6.27;5.50;;;12.20;98.20;;;11.96;68.74;101332.56;5016390;28;20227;-74
2023/05/14 01:54:16;;;;;;;6.30;5.70;;;12.20;98.30;;;11.88;69.20;101330.69;5016674;28;20267;-75
2023/05/14 01:56:48;;;;;;;6.37;5.73;;;12.10;98.40;;;11.87;68.74;101323.63;5016550;28;20203;-75
2023/05/14 01:59:20;;;;;;;6.53;5.63;;;12.10;98.30;;;11.92;69.74;101325.81;5015894;28;20667;-75
2023/05/14 02:01:52;;;;;;;5.93;5.40;;;12.10;98.70;;;11.86;68.35;101327.28;5016032;28;20250;-74
2023/05/14 02:04:23;;;;;;;7.07;5.93;;;12.20;98.20;;;11.77;69.70;101328.22;5016127;28;20195;-76
2023/05/14 02:06:55;;;;;;;6.80;5.83;;;12.10;98.70;;;11.75;70.44;101318.66;5015180;28;20188;-75
2023/05/14 02:09:29;;;;;;;6.67;6.07;;;12.00;99.00;;;11.71;70.19;101319.94;5015493;28;20215;-73
2023/05/14 02:12:01;;;;;;;7.47;5.67;;;12.00;98.90;;;11.63;70.37;101321.53;5016387;28;20191;-75
2023/05/14 02:14:33;;;;;;;6.77;6.07;;;11.90;98.90;;;11.66;69.86;101321.22;5015577;28;20556;-75
2023/05/14 02:17:05;;;;;;;6.53;5.93;;;12.00;99.00;;;11.58;70.72;101309.53;5015847;28;20198;-74
2023/05/14 02:19:37;;;;;;;6.83;6.23;;;11.90;99.10;;;11.57;70.26;101323.97;5015327;28;20196;-73
2023/05/14 02:22:09;;;;;;;7.63;6.80;;;11.90;98.90;;;11.61;70.20;101318.13;5016256;28;20188;-74
2023/05/14 02:24:43;;;;;;;7.13;6.40;;;11.90;99.20;;;11.74;69.59;101317.78;5015947;28;20196;-75
2023/05/14 02:27:14;;;;;;;6.97;6.23;;;12.10;98.60;;;11.67;68.41;101312.19;5015334;28;20641;-75
2023/05/14 02:29:46;;;;;;;6.70;6.10;;;12.00;98.00;;;11.58;69.73;101323.81;5015701;28;20381;-73
2023/05/14 02:32:18;;;;;;;6.63;6.00;;;11.90;98.50;;;11.57;69.23;101308.72;5015652;28;20195;-75
2023/05/14 02:34:50;;;;;;;6.20;5.60;;;11.90;98.30;;;11.55;69.37;101313.38;5015179;28;20617;-75
2023/05/14 02:37:22;;;;;;;7.33;6.43;;;11.80;98.70;;;11.59;69.15;101309.41;5015919;28;20188;-75
2023/05/14 02:39:55;;;;;;;8.83;6.50;;;11.90;98.60;;;11.41;69.79;101315.75;5015679;28;20219;-74
2023/05/14 02:42:27;;;;;;;6.70;6.10;;;11.70;98.60;;;11.33;69.64;101313.84;5015319;28;20596;-74
2023/05/14 02:44:59;;;;;;;6.90;6.30;;;11.60;98.80;;;11.23;70.56;101313.06;5015583;28;20202;-74
2023/05/14 02:47:31;;;;;;;7.37;6.67;;;11.50;99.10;;;11.19;70.85;101311.66;5015236;28;20636;-74
2023/05/14 02:50:05;;;;;;;7.50;6.80;;;11.50;99.30;;;11.16;70.61;101318.16;5015363;28;20228;-74
2023/05/14 02:52:36;;;;;;;7.57;6.97;;;11.50;99.40;;;11.17;70.50;101319.00;5015391;28;20196;-74
2023/05/14 02:55:12;;;;;;;7.73;7.03;;;11.40;99.40;;;11.17;70.69;101322.53;5015315;28;20195;-75
2023/05/14 02:57:44;;;;;;;7.13;6.53;;;11.50;99.50;;;11.13;70.48;101314.94;5015250;28;20274;-75
2023/05/14 03:00:16;;;;;;;7.93;7.20;;;11.40;99.20;;;11.04;71.33;101318.50;5015396;28;20235;-74
2023/05/14 03:02:48;;;;;;;8.17;7.47;;;11.30;99.40;;;11.03;70.20;101314.13;5015172;28;20250;-74
2023/05/14 03:05:21;;;;;;;7.87;7.07;;;11.40;99.20;;;10.94;71.10;101312.34;5015334;28;20278;-75
2023/05/14 03:07:53;;;;;;;8.23;6.87;;;11.30;99.30;;;10.99;70.34;101310.91;5015070;28;20196;-74
2023/05/14 03:10:26;;;;;;;7.30;6.60;;;11.40;99.20;;;10.97;69.88;101318.25;5015574;28;20236;-75
2023/05/14 03:12:58;;;;;;;8.93;6.57;;;11.30;99.10;;;10.98;70.24;101316.44;5015023;28;20191;-75
2023/05/14 03:15:30;;;;;;;6.93;6.23;;;11.30;99.30;;;10.90;70.04;101313.63;5014568;28;20671;-75
2023/05/14 03:18:02;;;;;;;6.93;6.23;;;11.30;99.00;;;11.03;69.91;101306.94;5014538;28;20190;-74
2023/05/14 03:20:34;;;;;;;7.47;6.70;;;11.40;99.10;;;10.93;70.31;101310.66;5014834;28;20222;-75
2023/05/14 03:23:06;;;;;;;7.50;6.63;;;11.30;99.00;;;10.91;70.00;101309.97;5015190;28;20187;-75
2023/05/14 03:25:39;;;;;;;7.37;6.60;;;11.30;99.50;;;10.90;70.22;101313.63;5014651;28;20215;-74
2023/05/14 03:28:10;;;;;;;7.13;6.43;;;11.20;99.10;;;10.87;70.57;101306.75;5014958;28;20188;-74
2023/05/14 03:30:42;;;;;;;6.80;6.20;;;11.20;99.10;;;10.85;70.71;101308.75;5014066;28;20231;-75
2023/05/14 03:33:14;;;;;;;7.10;6.40;;;11.20;99.40;;;10.81;71.27;101304.69;5014261;28;20220;-74
2023/05/14 03:35:46;;;;;;;9.23;7.03;;;11.10;99.40;;;10.75;71.30;101302.59;5014580;28;20199;-74
2023/05/14 03:38:18;;;;;;;9.67;6.77;;;11.10;99.40;;;10.72;70.97;101302.88;5014314;28;20203;-75
2023/05/14 03:40:51;;;;;;;7.57;6.87;;;11.10;99.60;;;10.72;70.87;101302.03;5013972;28;20231;-75
2023/05/14 03:43:23;;;;;;;7.70;6.90;;;11.00;99.70;;;10.62;71.59;101297.56;5014259;28;20201;-75
2023/05/14 03:45:54;;;;;;;7.73;6.60;;;11.00;99.80;;;10.66;71.69;101309.66;5013871;28;20567;-75
2023/05/14 03:48:26;;;;;;;7.67;6.93;;;11.00;99.70;;;10.57;72.33;101297.16;5014376;28;20196;-75
2023/05/14 03:50:58;;;;;;;7.50;6.73;;;11.00;99.90;;;10.63;71.83;101299.25;5013701;28;20322;-74
2023/05/14 03:53:30;;;;;;;7.97;7.17;;;11.00;99.90;;;10.59;72.67;101297.84;5013801;28;20558;-74
2023/05/14 03:56:03;;;;;;;7.57;6.80;;;11.00;99.90;;;10.56;72.31;101302.66;5014057;28;20536;-74
2023/05/14 03:58:35;;;;;;;7.80;6.73;;;10.90;99.90;;;10.66;72.21;101298.94;5014010;28;20188;-73
2023/05/14 04:01:07;;;;;;;6.63;6.03;;;11.00;99.90;;;10.75;71.69;101297.25;5013577;28;20277;-73
2023/05/14 04:03:39;;;;;;;7.13;6.53;;;11.10;99.90;;;10.76;71.75;101300.72;5013895;28;20206;-73
2023/05/14 04:06:11;;;;;;;6.87;6.37;;;11.20;99.80;;;10.90;71.22;101305.59;5013904;28;20195;-73
2023/05/14 04:08:43;;;;;;;7.50;6.70;;;11.30;99.50;;;10.84;71.62;101303.53;5013798;28;20200;-73
2023/05/14 04:11:16;;;;;;;7.60;6.60;;;11.30;99.60;;;10.76;72.12;101303.41;5013770;28;20227;-73
2023/05/14 04:13:48;;;;;;;8.33;6.70;;;11.10;99.90;;;10.81;71.32;101306.50;5013791;28;20199;-75
2023/05/14 04:16:19;;;;;;;7.77;6.77;;;11.30;99.70;;;10.76;71.75;101300.72;5013808;28;20215;-74
2023/05/14 04:18:51;;;;;;;7.70;7.00;;;11.20;99.80;;;10.71;73.11;101305.72;5013741;28;20215;-73
2023/05/14 04:21:23;;;;;;;7.67;6.70;;;11.10;99.90;;;10.81;72.06;101309.19;5013678;28;20265;-73
2023/05/14 04:23:55;;;;;;;8.20;7.40;;;11.30;99.90;;;10.82;72.37;101308.19;5013668;28;20188;-74
2023/05/14 04:26:29;;;;;;;7.63;6.93;;;11.30;99.90;;;10.73;73.00;101306.38;5013263;28;20192;-74
2023/05/14 04:29:02;;;;;;;8.40;7.60;;;11.20;99.90;;;10.70;73.07;101307.53;5012948;28;20352;-74
2023/05/14 04:31:34;;;;;;;8.80;7.57;;;11.10;99.90;;;10.66;73.10;101290.91;5014405;28;20626;-73
2023/05/14 04:34:06;;;;;;;8.10;7.30;;;11.10;99.90;;;10.76;73.00;101298.06;5013383;28;20219;-75
2023/05/14 04:36:38;;;;;;;7.57;6.97;;;11.20;99.90;;;10.79;72.74;101295.13;5013246;28;20188;-73
2023/05/14 04:39:11;;;;;;;8.47;7.77;;;11.30;99.90;;;10.73;73.17;101299.22;5013318;28;20286;-74
2023/05/14 04:41:44;;;;;;;8.27;7.57;;;11.20;99.90;;;10.69;73.68;101293.31;5013410;28;20330;-75
2023/05/14 04:44:17;;;;;;;9.30;7.63;;;11.10;99.90;;;10.67;73.90;101300.66;5013452;28;20257;-74
2023/05/14 04:46:49;;;;;;;8.43;7.27;;;11.10;99.90;;;10.74;73.57;101302.72;5013852;28;20373;-75
2023/05/14 04:49:22;;;;;;;8.33;7.63;;;11.20;99.90;;;10.75;74.15;101302.59;5013735;28;20637;-75
2023/05/14 04:51:55;;;;;;;8.37;7.03;;;11.20;99.90;;;10.76;73.95;101298.91;5013400;28;20203;-75
2023/05/14 04:54:27;;;;;;;8.13;7.33;;;11.20;99.90;;;10.80;74.16;101299.44;5013335;28;20612;-74
2023/05/14 04:57:02;;;;;;;8.03;7.33;;;11.30;99.90;;;10.78;74.42;101301.44;5013539;28;20230;-74
2023/05/14 04:59:34;;;;;;;8.10;7.40;;;11.30;99.90;;;10.79;74.72;101293.25;5013682;28;20194;-74
2023/05/14 05:02:06;;;;;;;8.47;7.70;;;11.30;99.90;;;10.85;75.32;101291.84;5013373;28;20223;-73
2023/05/14 05:04:38;;;;;;;11.77;7.60;;;11.30;99.90;;;10.89;75.11;101293.22;5013427;28;20231;-73
2023/05/14 05:07:10;;;;;;;8.00;7.30;;;11.40;99.90;;;10.91;74.89;101288.56;5013246;28;20199;-75
2023/05/14 05:09:42;;;;;;;8.60;7.80;;;11.40;99.90;;;10.91;75.04;101291.22;5013197;28;20222;-74
2023/05/14 05:12:15;;;;;;;10.83;8.63;;;11.40;99.90;;;10.91;74.94;101291.22;5013014;28;20239;-74
2023/05/14 05:14:47;;;;;;;8.87;8.07;;;11.40;99.90;;;10.93;75.30;101291.91;5013274;28;20195;-74
2023/05/14 05:17:19;;;;;;;7.50;6.90;;;11.40;99.90;;;10.99;74.06;101294.84;5013261;28;20191;-74
2023/05/14 05:19:51;;;;;;;10.03;8.43;;;11.50;99.90;;;11.02;75.38;101299.91;5013224;28;20223;-74
2023/05/14 05:22:23;;;;;;;9.43;7.93;;;11.60;99.90;;;11.07;74.90;101297.63;5012950;28;20667;-74
2023/05/14 05:24:55;;;;;;;9.63;8.37;;;11.60;99.90;;;11.10;75.57;101296.47;5013023;28;20188;-74
2023/05/14 05:27:28;;;;;;;8.70;7.80;;;11.60;99.90;;;11.13;75.03;101296.16;5013237;28;20207;-74
2023/05/14 05:30:01;;;;;;;7.57;6.87;;;11.70;99.90;;;11.16;73.89;101299.38;5013052;28;20236;-74
2023/05/14 05:32:32;;;;;;;8.60;7.90;;;11.70;99.90;;;11.22;75.42;101291.75;5013221;28;20215;-74
2023/05/14 05:35:05;;;;;;;9.83;7.73;;;11.70;99.90;;;11.24;76.26;101290.59;5013123;28;20250;-74
2023/05/14 05:37:37;;;;;;;9.03;8.13;;;11.80;99.90;;;11.27;76.00;101286.78;5013215;28;20224;-74
2023/05/14 05:40:12;;;;;;;10.20;9.20;;;11.80;99.90;;;11.30;77.02;101287.31;5012995;28;20228;-74
2023/05/14 05:42:46;;;;;;;9.80;8.77;;;11.90;99.90;;;11.34;76.29;101285.16;5016650;28;20203;-74
2023/05/14 05:45:18;;;;;;;10.50;9.33;;;11.90;99.90;;;11.38;76.01;101291.91;5016534;28;20196;-74
2023/05/14 05:47:50;;;;;;;9.90;8.90;;;11.90;99.90;;;11.42;76.70;101279.91;5016487;28;20565;-74
2023/05/14 05:50:22;;;;;;;9.13;8.30;;;12.00;99.90;;;11.48;75.16;101280.13;5015915;28;20692;-74
2023/05/14 05:52:54;;;;;;;8.90;8.07;;;12.10;99.90;;;11.53;75.75;101288.56;5016175;28;20663;-75
2023/05/14 05:55:26;;;;;;;9.50;8.60;;;12.10;99.90;;;11.58;75.44;101286.25;5016598;28;20203;-73
2023/05/14 05:57:59;;;;;;;10.67;8.37;;;12.20;99.90;;;11.64;75.18;101290.19;5016405;28;20318;-73
2023/05/14 06:00:31;;;;;;;8.60;7.90;;;12.20;99.90;;;11.68;74.72;101292.38;5016312;28;20227;-74
2023/05/14 06:03:03;;;;;;;8.63;7.93;;;12.30;99.90;;;11.75;74.67;101297.19;5015984;28;20251;-74
2023/05/14 06:05:34;;;;;;;10.93;8.37;;;12.40;99.90;;;11.84;74.22;101290.88;5016192;28;20220;-74
2023/05/14 06:08:06;;;;;;;10.13;8.13;;;12.50;99.90;;;11.88;74.10;101292.25;5016328;28;20246;-74
2023/05/14 06:10:38;;;;;;;10.23;8.80;;;12.50;99.90;;;11.96;74.03;101289.63;5016052;28;20235;-73
2023/05/14 06:13:11;;;;;;;8.00;7.20;;;12.60;99.90;;;12.04;72.92;101297.75;5016381;28;20612;-75
2023/05/14 06:15:43;;;;;;;9.90;8.00;;;12.70;99.90;;;12.13;72.24;101289.59;5016106;28;20198;-75
2023/05/14 06:18:15;;;;;;;10.03;8.07;;;12.70;99.80;;;12.18;71.63;101289.13;5016341;28;20191;-75
2023/05/14 06:20:47;;;;;;;8.63;7.83;;;12.80;99.60;;;12.31;71.44;101291.38;5015748;28;20569;-74
2023/05/14 06:23:19;;;;;;;8.93;7.47;;;12.90;99.30;;;12.30;71.06;101287.84;5016107;28;20196;-75
2023/05/14 06:25:51;;;;;;;8.00;7.30;;;12.90;99.30;;;12.35;72.73;101293.59;5015944;28;20200;-75
2023/05/14 06:28:24;;;;;;;8.90;8.00;;;13.00;99.80;;;12.45;72.75;101290.81;5016091;28;20191;-73
2023/05/14 06:30:56;;;;;;;7.83;7.13;;;13.10;99.80;;;12.50;71.37;101294.69;5016097;28;20242;-75
2023/05/14 06:33:29;;;;;;;9.30;7.73;;;13.10;99.50;;;12.57;73.61;101290.38;5015823;28;20219;-75
2023/05/14 06:36:06;;;;;;;8.07;7.37;;;13.20;99.90;;;12.65;72.48;101298.47;5016090;28;20203;-73
2023/05/14 06:38:41;;;;;;;8.47;7.57;;;13.30;99.70;;;12.73;71.06;101288.78;5016110;28;20198;-75
2023/05/14 06:41:12;;;;;;;8.30;7.33;;;13.30;99.20;;;12.75;71.41;101287.59;5015645;28;20222;-75
2023/05/14 06:43:45;;;;;;;8.43;7.33;;;13.40;99.00;;;12.89;70.52;101283.47;5016002;28;20195;-76
2023/05/14 06:46:17;;;;;;;7.87;7.17;;;13.50;98.90;;;12.97;69.78;101273.59;5015696;28;20192;-75
2023/05/14 06:48:49;;;;;;;10.10;6.80;;;13.60;98.60;;;13.04;70.46;101287.22;5015691;28;20218;-75
2023/05/14 06:51:21;;;;;;;7.33;6.70;;;13.70;98.60;;;13.09;68.91;101284.91;5015016;28;20608;-74
2023/05/14 06:53:53;;;;;;;7.30;6.70;;;13.70;98.10;;;13.19;69.68;101283.78;5015804;28;20208;-74
2023/05/14 06:56:25;;;;;;;7.77;7.07;;;13.80;98.30;;;13.27;69.21;101276.72;5015432;28;20196;-74
2023/05/14 06:58:59;;;;;;;8.07;7.27;;;13.90;98.50;;;13.42;68.24;101281.31;5015410;28;20655;-74
2023/05/14 07:01:30;;;;;;;7.80;6.70;;;14.00;97.90;;;13.40;69.48;101280.63;5014849;28;20231;-74
2023/05/14 07:04:02;;;;;;;7.03;6.43;;;14.00;98.10;;;13.47;68.42;101278.09;5015250;28;20638;-75
2023/05/14 07:06:35;;;;;;;7.70;7.00;;;14.10;97.70;;;13.48;71.27;101283.34;5015387;28;20191;-75
2023/05/14 07:09:06;;;;;;;7.20;6.60;;;14.10;98.80;;;13.57;69.79;101279.63;5015202;28;20196;-75
2023/05/14 07:11:38;;;;;;;6.83;6.23;;;14.20;98.70;;;13.61;68.87;101278.31;5014609;28;20642;-74
2023/05/14 07:14:11;;;;;;;7.10;6.50;;;14.20;97.90;;;13.74;67.24;101272.41;5015189;28;20196;-74
2023/05/14 07:16:45;;;;;;;7.00;6.40;;;14.30;97.40;;;13.77;68.06;101264.00;5015009;28;20192;-75
2023/05/14 07:19:17;;;;;;;7.13;6.43;;;14.40;97.60;;;13.87;68.33;101275.44;5014812;28;20257;-73
2023/05/14 07:21:49;;;;;;;6.73;6.03;;;14.50;97.90;;;14.02;66.24;101270.22;5014903;28;20224;-73
2023/05/14 07:24:22;;;;;;;7.03;6.30;;;14.70;97.20;;;14.20;65.44;101271.72;5014920;28;20215;-75
2023/05/14 07:26:56;;;;;;;6.63;6.03;;;14.80;96.40;;;14.40;64.96;101269.53;5015831;28;20200;-75
2023/05/14 07:29:30;;;;;;;6.80;6.20;;;15.00;96.00;;;14.44;64.78;101264.63;5016440;28;20198;-74
2023/05/14 07:32:03;;;;;;;6.93;6.23;;;15.00;95.80;;;14.51;63.65;101263.78;5014498;28;20269;-74
2023/05/14 07:34:35;;;;;;;6.40;5.73;;;15.10;95.50;;;14.55;64.21;101266.97;5015185;28;20210;-75
2023/05/14 07:37:07;;;;;;;6.23;5.13;;;15.10;95.70;;;14.57;65.62;101254.16;5014810;28;20206;-75
2023/05/14 07:39:40;;;;;;;6.20;5.70;;;15.20;96.40;;;14.68;64.24;101260.00;5014229;28;20653;-74
2023/05/14 07:42:12;;;;;;;6.33;5.37;;;15.30;95.70;;;14.70;63.58;101252.59;5014333;28;20620;-74
2023/05/14 07:44:57;;;;;;;6.50;5.90;;;15.30;95.30;;;14.77;63.34;101254.56;5014309;28;20191;-75
2023/05/14 07:47:29;;;;;;;5.83;5.30;;;15.30;95.30;;;14.82;64.91;101254.91;5014383;28;20196;-75
2023/05/14 07:50:01;;;;;;;6.53;5.80;;;15.40;95.80;;;15.12;62.45;101248.66;5014170;28;20234;-74
2023/05/14 07:52:33;;;;;;;6.13;5.63;;;15.60;94.90;;;15.14;61.88;101238.53;5014119;28;20230;-75
2023/05/14 07:55:05;;;;;;;7.73;5.67;;;15.80;94.20;;;15.19;64.11;101241.56;5014172;28;20192;-75
2023/05/14 07:57:37;;;;;;;6.10;5.50;;;15.70;95.70;;;15.16;66.01;101241.91;5014106;28;20198;-74
2023/05/14 08:00:14;;;;;;;6.93;5.70;;;15.80;96.00;;;15.43;61.68;101238.69;5013900;28;20238;-74
2023/05/14 08:02:47;;;;;;;5.90;5.27;;;16.00;94.20;;;15.38;64.10;101235.69;5013794;28;20198;-74
2023/05/14 08:05:20;;;;;;;5.87;5.37;;;16.00;95.20;;;15.45;64.33;101235.78;5013726;28;20191;-74
2023/05/14 08:07:51;;;;;;;6.53;5.30;;;16.00;95.40;;;15.63;61.55;101239.06;5013628;28;20608;-74
2023/05/14 08:10:23;;;;;;;8.63;4.93;;;16.20;94.00;;;15.77;59.45;101235.59;5013121;28;20778;-73
2023/05/14 08:12:56;;;;;;;4.93;4.53;;;16.30;93.00;;;15.76;61.18;101239.28;5013830;28;20758;-74
2023/05/14 08:15:29;;;;;;;5.93;5.07;;;16.40;93.50;;;15.85;60.83;101232.81;5013150;28;20640;-73
2023/05/14 08:18:02;;;;;;;6.17;5.00;;;16.40;93.70;;;15.92;60.59;101236.47;5013115;28;20640;-74
2023/05/14 08:20:34;;;;;;;5.17;4.77;;;16.50;93.80;;;16.07;58.34;101231.06;5012637;28;20230;-74
2023/05/14 08:23:08;;;;;;;5.60;4.90;;;16.70;92.10;;;16.07;59.87;101236.47;5012462;28;20192;-74
2023/05/14 08:25:39;;;;;;;6.83;5.30;;;16.60;93.00;;;16.13;60.29;101236.56;5013567;28;20191;-75
2023/05/14 08:28:11;;;;;;;5.83;5.33;;;16.70;93.10;;;16.19;59.66;101233.16;5013771;28;20188;-74
2023/05/14 08:30:44;;;;;;;6.53;5.90;;;16.80;93.00;;;16.34;58.49;101230.44;5013839;28;20245;-75
2023/05/14 08:33:16;;;;;;;6.63;4.60;;;16.90;92.50;;;16.38;60.22;101229.06;5013276;28;20238;-75
2023/05/14 08:35:50;;;;;;;6.33;5.20;;;17.00;93.30;;;16.55;55.33;101229.72;5013803;28;20196;-74
2023/05/14 08:38:23;;;;;;;5.87;4.67;;;17.10;90.70;;;16.58;58.16;101227.50;5013631;28;20195;-75
2023/05/14 08:41:00;;;;;;;6.23;5.40;;;17.20;91.80;;;16.77;56.07;101225.25;5013348;28;20243;-74
2023/05/14 08:43:54;;;;;;;6.60;6.00;;;17.30;90.50;;;16.80;57.64;101222.16;5013687;28;20195;-75
2023/05/14 08:46:32;;;;;;;5.70;5.20;;;17.30;92.00;;;16.93;57.00;101216.91;5013685;28;20210;-75
2023/05/14 08:49:15;;;;;;;6.60;5.43;;;17.50;90.90;;;16.94;57.52;101219.44;5013360;28;20192;-75
2023/05/14 08:51:50;;;;;;;6.57;5.97;;;17.50;91.60;;;17.11;53.40;101211.94;5014268;28;20235;-74
2023/05/14 08:54:25;;;;;;;7.67;6.93;;;17.60;88.80;;;17.19;53.54;101209.94;5013660;28;20195;-74
2023/05/14 08:56:58;;;;;;;8.90;8.00;;;17.70;88.70;;;17.31;54.26;101199.44;5013732;28;20195;-75
2023/05/14 08:59:32;;;;;;;8.13;7.40;;;17.90;89.00;;;17.46;53.21;101202.94;5013674;28;20192;-73
2023/05/14 09:02:09;;;;;;;11.63;10.80;;;17.90;88.30;;;17.56;54.75;101192.66;5013793;28;20196;-73
2023/05/14 09:04:42;;;;;;;12.53;11.23;;;18.10;89.70;;;17.57;55.87;101193.47;5013627;28;20191;-75
2023/05/14 09:07:14;;;;;;;15.83;14.70;;;18.10;90.50;;;17.65;55.46;101202.31;5013582;28;20204;-75
2023/05/14 09:09:47;;;;;;;14.97;13.77;;;18.20;90.50;;;17.69;52.60;101192.75;5013517;28;20214;-75
2023/05/14 09:12:18;;;;;;;13.60;12.57;;;18.20;86.10;;;17.78;49.39;101193.44;5013453;28;20222;-75
2023/05/14 09:14:52;;;;;;;20.53;18.97;;;18.30;82.60;;;17.87;52.59;101200.41;5014325;28;20192;-75
2023/05/14 09:17:27;;;;;;;24.10;21.97;;;18.40;85.60;;;18.01;49.00;101198.63;5017194;28;20192;-75
2023/05/14 09:20:01;;;;;;;28.13;25.70;;;18.50;81.70;;;18.04;50.87;101195.53;5016820;28;20261;-74
2023/05/14 09:22:34;;;;;;;32.00;28.87;;;18.60;84.30;;;18.19;48.44;101188.09;5016836;28;20199;-76
2023/05/14 09:25:10;;;;;;;32.83;29.80;;;18.70;81.20;;;18.40;47.65;101196.16;5016898;28;20559;-75
2023/05/14 09:27:48;;;;;;;42.63;39.00;;;18.80;79.00;;;18.43;50.76;101195.75;5017165;28;20655;-75
2023/05/14 09:30:20;;;;;;;44.33;40.70;;;18.90;83.20;;;18.54;48.69;101192.50;5016770;28;20238;-74
2023/05/14 09:32:55;;;;;;;48.83;44.23;;;19.00;81.50;;;18.58;47.64;101187.53;5016670;28;20699;-76
2023/05/14 09:35:28;;;;;;;60.80;54.87;;;19.10;78.60;;;18.65;49.46;101182.97;5017238;28;20245;-74
2023/05/14 09:38:00;;;;;;;60.80;55.00;;;19.10;80.00;;;18.74;48.33;101182.59;5017278;28;20191;-74
2023/05/14 09:40:32;;;;;;;88.27;79.63;;;19.20;80.10;;;18.88;47.52;101182.63;5017246;28;20250;-74
2023/05/14 09:43:04;;;;;;;128.83;113.70;;;19.30;78.80;;;18.93;48.99;101172.84;5017066;28;20192;-74
2023/05/14 09:45:36;;;;;;;96.53;82.37;;;19.40;81.30;;;19.13;43.88;101176.47;5017000;28;20200;-74
2023/05/14 09:48:10;;;;;;;178.00;146.97;;;19.50;73.90;;;19.14;48.36;101169.16;5016263;28;20652;-75
2023/05/14 09:50:46;;;;;;;174.33;156.27;;;19.60;78.40;;;19.16;46.72;101165.19;5016885;28;20258;-75
2023/05/14 09:53:21;;;;;;;151.57;118.63;;;19.60;75.00;;;19.28;44.32;101162.69;5016535;28;20211;-75
2023/05/14 09:55:52;;;;;;;145.17;122.00;;;19.70;72.10;;;19.41;42.66;101157.31;5016484;28;20199;-75
2023/05/14 09:58:26;;;;;;;310.70;229.60;;;19.80;70.90;;;19.48;45.24;101158.16;5016124;28;20203;-75
2023/05/14 10:01:01;;;;;;;281.27;227.00;;;19.90;74.60;;;19.58;45.18;101158.59;5016451;28;20227;-75
2023/05/14 10:03:35;;;;;;;265.50;214.53;;;20.00;74.10;;;19.62;42.04;101148.13;5017033;28;20245;-75
2023/05/14 10:06:09;;;;;;;339.10;239.90;;;20.10;70.20;;;19.68;44.07;101148.13;5016882;28;20202;-75
2023/05/14 10:08:48;;;;;;;479.60;336.20;;;20.00;72.30;;;19.79;45.71;101143.09;5016528;28;20191;-74
2023/05/14 10:11:30;;;;;;;414.40;298.07;;;20.10;74.20;;;19.85;45.29;101142.25;5016119;28;20599;-74
2023/05/14 10:14:16;;;;;;;516.77;368.83;;;20.20;73.40;;;19.95;47.88;101137.22;5015980;28;20208;-75
2023/05/14 10:16:53;;;;;;;504.20;339.57;;;20.40;76.80;;;20.11;43.67;101142.19;5015784;28;20211;-75
2023/05/14 10:19:31;;;;;;;581.77;399.27;;;20.50;70.60;;;20.20;43.95;101136.34;5016035;28;20286;-74
2023/05/14 10:22:11;;;;;;;551.80;341.30;;;20.60;70.70;;;20.19;39.98;101134.66;5016007;28;20606;-75
2023/05/14 10:24:44;;;;;;;717.33;415.73;;;20.50;63.20;;;20.28;39.89;101134.44;5016237;28;20191;-76
2023/05/14 10:27:18;;;;;;;798.23;466.10;;;20.60;64.60;;;20.34;41.78;101134.44;5015098;28;20291;-75
2023/05/14 10:29:56;;;;;;;1188.47;571.73;;;20.70;67.90;;;20.41;40.54;101127.06;5015667;28;20231;-74
2023/05/14 10:32:31;;;;;;;804.83;454.33;;;20.80;68.00;;;20.49;39.07;101134.16;5015470;28;20231;-74
2023/05/14 10:35:15;;;;;;;1016.53;533.63;;;20.80;62.30;;;20.62;37.86;101128.66;5015930;28;20206;-75